sensor_id;sensor_type;location;lat;lon;timestamp;P1;durP1;ratioP1;P2;durP2;ratioP2
67757;SDS011;54562;47.620;18.786;2024-01-10T00:02:46;10.40;;;5.50;;
67757;SDS011;54562;47.620;18.786;2024-01-10T00:06:14;9.10;;;5.20;;
67757;SDS011;54562;47.620;18.786;2024-01-10T00:09:45;8.40;;;5.20;;
67757;SDS011;54562;47.620;18.786;2024-01-10T00:13:14;11.30;;;5.60;;
67757;SDS011;54562;47.620;18.786;2024-01-10T00:16:43;10.40;;;5.40;;
67757;SDS011;54562;47.620;18.786;2024-01-10T00:19:53;10.40;;;5.60;;
67757;SDS011;54562;47.620;18.786;2024-01-10T00:23:17;9.90;;;5.50;;
67757;SDS011;54562;47.620;18.786;2024-01-10T00:26:27;9.80;;;5.10;;
67757;SDS011;54562;47.620;18.786;2024-01-10T00:29:51;9.20;;;5.10;;
67757;SDS011;54562;47.620;18.786;2024-01-10T00:33:07;11.60;;;5.50;;
67757;SDS011;54562;47.620;18.786;2024-01-10T00:36:37;9.90;;;5.30;;
67757;SDS011;54562;47.620;18.786;2024-01-10T00:40:06;9.40;;;5.30;;
67757;SDS011;54562;47.620;18.786;2024-01-10T00:43:38;8.60;;;5.40;;
67757;SDS011;54562;47.620;18.786;2024-01-10T00:47:07;9.40;;;5.60;;
67757;SDS011;54562;47.620;18.786;2024-01-10T00:50:16;10.60;;;5.50;;
67757;SDS011;54562;47.620;18.786;2024-01-10T00:53:40;9.50;;;5.70;;
67757;SDS011;54562;47.620;18.786;2024-01-10T00:56:50;9.80;;;5.60;;
67757;SDS011;54562;47.620;18.786;2024-01-10T01:00:14;11.40;;;5.90;;
67757;SDS011;54562;47.620;18.786;2024-01-10T01:03:31;11.00;;;6.30;;
67757;SDS011;54562;47.620;18.786;2024-01-10T01:07:00;9.40;;;5.70;;
67757;SDS011;54562;47.620;18.786;2024-01-10T01:10:29;10.00;;;5.90;;
67757;SDS011;54562;47.620;18.786;2024-01-10T01:13:58;11.20;;;5.60;;
67757;SDS011;54562;47.620;18.786;2024-01-10T01:17:27;10.40;;;6.10;;
67757;SDS011;54562;47.620;18.786;2024-01-10T01:20:37;10.40;;;6.00;;
67757;SDS011;54562;47.620;18.786;2024-01-10T01:27:13;12.70;;;6.40;;
67757;SDS011;54562;47.620;18.786;2024-01-10T01:30:36;13.50;;;7.10;;
67757;SDS011;54562;47.620;18.786;2024-01-10T01:33:54;13.30;;;7.30;;
67757;SDS011;54562;47.620;18.786;2024-01-10T01:37:23;13.40;;;7.90;;
67757;SDS011;54562;47.620;18.786;2024-01-10T01:40:52;14.90;;;8.50;;
67757;SDS011;54562;47.620;18.786;2024-01-10T01:44:22;14.60;;;8.20;;
67757;SDS011;54562;47.620;18.786;2024-01-10T01:47:53;14.60;;;8.60;;
67757;SDS011;54562;47.620;18.786;2024-01-10T01:51:04;16.60;;;9.20;;
67757;SDS011;54562;47.620;18.786;2024-01-10T01:54:29;17.00;;;8.60;;
67757;SDS011;54562;47.620;18.786;2024-01-10T01:57:40;13.80;;;8.30;;
67757;SDS011;54562;47.620;18.786;2024-01-10T02:01:04;15.00;;;7.80;;
67757;SDS011;54562;47.620;18.786;2024-01-10T02:04:14;16.40;;;8.20;;
67757;SDS011;54562;47.620;18.786;2024-01-10T02:07:45;14.10;;;8.30;;
67757;SDS011;54562;47.620;18.786;2024-01-10T02:11:14;14.20;;;7.60;;
67757;SDS011;54562;47.620;18.786;2024-01-10T02:14:43;15.00;;;7.80;;
67757;SDS011;54562;47.620;18.786;2024-01-10T02:18:13;13.90;;;7.40;;
67757;SDS011;54562;47.620;18.786;2024-01-10T02:21:23;20.30;;;8.30;;
67757;SDS011;54562;47.620;18.786;2024-01-10T02:28:00;16.50;;;8.80;;
67757;SDS011;54562;47.620;18.786;2024-01-10T02:31:17;16.50;;;8.60;;
67757;SDS011;54562;47.620;18.786;2024-01-10T02:34:33;14.00;;;8.30;;
67757;SDS011;54562;47.620;18.786;2024-01-10T02:37:49;16.30;;;7.90;;
67757;SDS011;54562;47.620;18.786;2024-01-10T02:41:06;13.90;;;7.60;;
67757;SDS011;54562;47.620;18.786;2024-01-10T02:44:23;11.80;;;6.50;;
67757;SDS011;54562;47.620;18.786;2024-01-10T02:47:39;14.00;;;7.60;;
67757;SDS011;54562;47.620;18.786;2024-01-10T02:50:49;17.80;;;8.00;;
67757;SDS011;54562;47.620;18.786;2024-01-10T02:53:59;19.30;;;9.80;;
67757;SDS011;54562;47.620;18.786;2024-01-10T02:57:15;12.50;;;7.20;;
67757;SDS011;54562;47.620;18.786;2024-01-10T03:00:24;10.60;;;6.20;;
67757;SDS011;54562;47.620;18.786;2024-01-10T03:03:41;10.70;;;6.40;;
67757;SDS011;54562;47.620;18.786;2024-01-10T03:06:57;10.50;;;6.10;;
67757;SDS011;54562;47.620;18.786;2024-01-10T03:13:29;11.50;;;6.40;;
67757;SDS011;54562;47.620;18.786;2024-01-10T03:16:54;14.20;;;7.10;;
67757;SDS011;54562;47.620;18.786;2024-01-10T03:20:04;13.80;;;8.20;;
67757;SDS011;54562;47.620;18.786;2024-01-10T03:23:35;17.70;;;9.00;;
67757;SDS011;54562;47.620;18.786;2024-01-10T03:27:04;17.30;;;9.70;;
67757;SDS011;54562;47.620;18.786;2024-01-10T03:30:33;21.20;;;9.80;;
67757;SDS011;54562;47.620;18.786;2024-01-10T03:34:03;23.20;;;11.00;;
67757;SDS011;54562;47.620;18.786;2024-01-10T03:37:14;14.80;;;7.90;;
67757;SDS011;54562;47.620;18.786;2024-01-10T03:40:37;13.70;;;8.10;;
67757;SDS011;54562;47.620;18.786;2024-01-10T03:43:47;19.50;;;9.90;;
67757;SDS011;54562;47.620;18.786;2024-01-10T03:47:10;16.70;;;8.60;;
67757;SDS011;54562;47.620;18.786;2024-01-10T03:50:20;17.70;;;9.40;;
67757;SDS011;54562;47.620;18.786;2024-01-10T03:53:49;12.90;;;7.70;;
67757;SDS011;54562;47.620;18.786;2024-01-10T03:57:18;14.40;;;7.80;;
67757;SDS011;54562;47.620;18.786;2024-01-10T04:00:47;15.30;;;7.60;;
67757;SDS011;54562;47.620;18.786;2024-01-10T04:04:16;16.10;;;8.80;;
67757;SDS011;54562;47.620;18.786;2024-01-10T04:07:27;16.70;;;9.30;;
67757;SDS011;54562;47.620;18.786;2024-01-10T04:14:18;21.50;;;10.60;;
67757;SDS011;54562;47.620;18.786;2024-01-10T04:17:35;26.00;;;12.00;;
67757;SDS011;54562;47.620;18.786;2024-01-10T04:24:13;21.80;;;10.30;;
67757;SDS011;54562;47.620;18.786;2024-01-10T04:27:29;19.00;;;10.20;;
67757;SDS011;54562;47.620;18.786;2024-01-10T04:30:46;21.80;;;11.00;;
67757;SDS011;54562;47.620;18.786;2024-01-10T04:34:02;22.70;;;11.50;;
67757;SDS011;54562;47.620;18.786;2024-01-10T04:37:12;23.00;;;10.80;;
67757;SDS011;54562;47.620;18.786;2024-01-10T04:40:22;18.70;;;10.10;;
67757;SDS011;54562;47.620;18.786;2024-01-10T04:43:38;21.00;;;10.10;;
67757;SDS011;54562;47.620;18.786;2024-01-10T04:46:55;17.70;;;9.50;;
67757;SDS011;54562;47.620;18.786;2024-01-10T04:50:11;18.00;;;9.20;;
67757;SDS011;54562;47.620;18.786;2024-01-10T04:53:23;15.10;;;8.50;;
67757;SDS011;54562;47.620;18.786;2024-01-10T04:56:46;14.50;;;7.80;;
67757;SDS011;54562;47.620;18.786;2024-01-10T04:59:57;15.60;;;7.50;;
67757;SDS011;54562;47.620;18.786;2024-01-10T05:03:19;12.60;;;8.00;;
67757;SDS011;54562;47.620;18.786;2024-01-10T05:06:30;20.20;;;7.80;;
67757;SDS011;54562;47.620;18.786;2024-01-10T05:09:59;11.20;;;6.40;;
67757;SDS011;54562;47.620;18.786;2024-01-10T05:13:29;13.70;;;7.10;;
67757;SDS011;54562;47.620;18.786;2024-01-10T05:16:58;14.20;;;7.70;;
67757;SDS011;54562;47.620;18.786;2024-01-10T05:20:27;15.40;;;7.90;;
67757;SDS011;54562;47.620;18.786;2024-01-10T05:23:38;15.70;;;7.80;;
67757;SDS011;54562;47.620;18.786;2024-01-10T05:27:01;15.50;;;8.00;;
67757;SDS011;54562;47.620;18.786;2024-01-10T05:30:13;10.90;;;7.20;;
67757;SDS011;54562;47.620;18.786;2024-01-10T05:33:37;12.30;;;7.20;;
67757;SDS011;54562;47.620;18.786;2024-01-10T05:36:48;12.60;;;7.20;;
67757;SDS011;54562;47.620;18.786;2024-01-10T05:40:17;13.50;;;7.30;;
67757;SDS011;54562;47.620;18.786;2024-01-10T05:43:46;14.20;;;6.90;;
67757;SDS011;54562;47.620;18.786;2024-01-10T05:50:43;11.90;;;6.80;;
67757;SDS011;54562;47.620;18.786;2024-01-10T05:54:12;11.20;;;6.70;;
67757;SDS011;54562;47.620;18.786;2024-01-10T05:57:24;13.40;;;6.60;;
67757;SDS011;54562;47.620;18.786;2024-01-10T06:00:47;11.80;;;7.00;;
67757;SDS011;54562;47.620;18.786;2024-01-10T06:03:58;12.60;;;6.70;;
67757;SDS011;54562;47.620;18.786;2024-01-10T06:07:21;11.70;;;6.50;;
67757;SDS011;54562;47.620;18.786;2024-01-10T06:10:38;10.50;;;6.70;;
67757;SDS011;54562;47.620;18.786;2024-01-10T06:13:54;12.10;;;6.50;;
67757;SDS011;54562;47.620;18.786;2024-01-10T06:17:24;11.50;;;6.00;;
67757;SDS011;54562;47.620;18.786;2024-01-10T06:20:53;10.60;;;6.00;;
67757;SDS011;54562;47.620;18.786;2024-01-10T06:24:04;9.20;;;6.10;;
67757;SDS011;54562;47.620;18.786;2024-01-10T06:27:27;12.20;;;6.00;;
67757;SDS011;54562;47.620;18.786;2024-01-10T06:30:38;9.70;;;5.80;;
67757;SDS011;54562;47.620;18.786;2024-01-10T06:34:01;10.90;;;5.80;;
67757;SDS011;54562;47.620;18.786;2024-01-10T06:37:12;10.30;;;6.00;;
67757;SDS011;54562;47.620;18.786;2024-01-10T06:40:42;9.80;;;5.60;;
67757;SDS011;54562;47.620;18.786;2024-01-10T06:44:12;9.30;;;5.70;;
67757;SDS011;54562;47.620;18.786;2024-01-10T06:47:40;8.40;;;5.20;;
67757;SDS011;54562;47.620;18.786;2024-01-10T06:51:10;11.60;;;5.80;;
67757;SDS011;54562;47.620;18.786;2024-01-10T06:54:20;10.00;;;5.90;;
67757;SDS011;54562;47.620;18.786;2024-01-10T06:57:43;8.50;;;5.50;;
67757;SDS011;54562;47.620;18.786;2024-01-10T07:00:52;8.10;;;5.20;;
67757;SDS011;54562;47.620;18.786;2024-01-10T07:04:16;12.00;;;5.50;;
67757;SDS011;54562;47.620;18.786;2024-01-10T07:07:28;10.60;;;5.60;;
67757;SDS011;54562;47.620;18.786;2024-01-10T07:10:58;11.50;;;5.70;;
67757;SDS011;54562;47.620;18.786;2024-01-10T07:14:27;11.70;;;6.40;;
67757;SDS011;54562;47.620;18.786;2024-01-10T07:17:56;9.90;;;6.20;;
67757;SDS011;54562;47.620;18.786;2024-01-10T07:21:25;11.20;;;5.90;;
67757;SDS011;54562;47.620;18.786;2024-01-10T07:24:34;12.20;;;6.40;;
67757;SDS011;54562;47.620;18.786;2024-01-10T07:27:58;10.60;;;6.30;;
67757;SDS011;54562;47.620;18.786;2024-01-10T07:31:07;12.30;;;6.70;;
67757;SDS011;54562;47.620;18.786;2024-01-10T07:34:31;13.20;;;7.20;;
67757;SDS011;54562;47.620;18.786;2024-01-10T07:37:41;13.70;;;7.10;;
67757;SDS011;54562;47.620;18.786;2024-01-10T07:41:11;15.30;;;7.60;;
67757;SDS011;54562;47.620;18.786;2024-01-10T07:44:40;16.60;;;7.90;;
67757;SDS011;54562;47.620;18.786;2024-01-10T07:48:10;14.40;;;7.50;;
67757;SDS011;54562;47.620;18.786;2024-01-10T07:51:39;13.70;;;7.00;;
67757;SDS011;54562;47.620;18.786;2024-01-10T07:54:49;18.50;;;8.80;;
67757;SDS011;54562;47.620;18.786;2024-01-10T07:58:13;15.20;;;7.80;;
67757;SDS011;54562;47.620;18.786;2024-01-10T08:01:24;16.40;;;7.80;;
67757;SDS011;54562;47.620;18.786;2024-01-10T08:04:48;13.80;;;6.90;;
67757;SDS011;54562;47.620;18.786;2024-01-10T08:07:58;10.70;;;5.90;;
67757;SDS011;54562;47.620;18.786;2024-01-10T08:11:28;13.00;;;6.40;;
67757;SDS011;54562;47.620;18.786;2024-01-10T08:14:57;11.40;;;6.40;;
67757;SDS011;54562;47.620;18.786;2024-01-10T08:18:27;14.00;;;7.50;;
67757;SDS011;54562;47.620;18.786;2024-01-10T08:21:56;12.00;;;7.20;;
67757;SDS011;54562;47.620;18.786;2024-01-10T08:25:06;13.60;;;6.90;;
67757;SDS011;54562;47.620;18.786;2024-01-10T08:28:31;12.50;;;6.50;;
67757;SDS011;54562;47.620;18.786;2024-01-10T08:31:40;12.50;;;6.20;;
67757;SDS011;54562;47.620;18.786;2024-01-10T08:35:05;13.80;;;6.30;;
67757;SDS011;54562;47.620;18.786;2024-01-10T08:38:17;12.00;;;6.20;;
67757;SDS011;54562;47.620;18.786;2024-01-10T08:41:47;13.70;;;6.30;;
67757;SDS011;54562;47.620;18.786;2024-01-10T08:45:17;11.50;;;6.40;;
67757;SDS011;54562;47.620;18.786;2024-01-10T08:48:47;12.10;;;6.60;;
67757;SDS011;54562;47.620;18.786;2024-01-10T08:52:17;15.10;;;7.00;;
67757;SDS011;54562;47.620;18.786;2024-01-10T08:55:27;12.20;;;6.60;;
67757;SDS011;54562;47.620;18.786;2024-01-10T08:58:52;11.60;;;6.50;;
67757;SDS011;54562;47.620;18.786;2024-01-10T09:02:02;13.50;;;5.90;;
67757;SDS011;54562;47.620;18.786;2024-01-10T09:05:26;10.80;;;5.80;;
67757;SDS011;54562;47.620;18.786;2024-01-10T09:08:36;11.60;;;5.70;;
67757;SDS011;54562;47.620;18.786;2024-01-10T09:12:06;10.20;;;5.90;;
67757;SDS011;54562;47.620;18.786;2024-01-10T09:15:37;11.30;;;6.30;;
67757;SDS011;54562;47.620;18.786;2024-01-10T09:19:06;13.80;;;6.60;;
67757;SDS011;54562;47.620;18.786;2024-01-10T09:22:35;11.90;;;6.40;;
67757;SDS011;54562;47.620;18.786;2024-01-10T09:25:45;11.20;;;6.40;;
67757;SDS011;54562;47.620;18.786;2024-01-10T09:29:09;11.40;;;6.00;;
67757;SDS011;54562;47.620;18.786;2024-01-10T09:32:20;14.50;;;5.80;;
67757;SDS011;54562;47.620;18.786;2024-01-10T09:35:43;12.40;;;7.20;;
67757;SDS011;54562;47.620;18.786;2024-01-10T09:38:52;16.20;;;7.90;;
67757;SDS011;54562;47.620;18.786;2024-01-10T09:42:24;14.20;;;7.50;;
67757;SDS011;54562;47.620;18.786;2024-01-10T09:49:46;11.00;;;6.50;;
67757;SDS011;54562;47.620;18.786;2024-01-10T09:53:17;11.60;;;6.50;;
67757;SDS011;54562;47.620;18.786;2024-01-10T09:56:32;13.00;;;7.00;;
67757;SDS011;54562;47.620;18.786;2024-01-10T09:59:55;12.70;;;7.10;;
67757;SDS011;54562;47.620;18.786;2024-01-10T10:03:06;12.50;;;6.90;;
67757;SDS011;54562;47.620;18.786;2024-01-10T10:06:32;14.60;;;7.70;;
67757;SDS011;54562;47.620;18.786;2024-01-10T10:09:42;13.70;;;7.80;;
67757;SDS011;54562;47.620;18.786;2024-01-10T10:13:24;15.40;;;8.30;;
67757;SDS011;54562;47.620;18.786;2024-01-10T10:16:57;17.60;;;7.40;;
67757;SDS011;54562;47.620;18.786;2024-01-10T10:20:42;13.00;;;7.00;;
67757;SDS011;54562;47.620;18.786;2024-01-10T10:24:11;15.20;;;7.40;;
67757;SDS011;54562;47.620;18.786;2024-01-10T10:30:47;13.20;;;6.60;;
67757;SDS011;54562;47.620;18.786;2024-01-10T10:33:59;13.70;;;7.50;;
67757;SDS011;54562;47.620;18.786;2024-01-10T10:37:23;12.80;;;6.90;;
67757;SDS011;54562;47.620;18.786;2024-01-10T10:40:32;13.60;;;7.60;;
67757;SDS011;54562;47.620;18.786;2024-01-10T10:44:03;13.30;;;7.10;;
67757;SDS011;54562;47.620;18.786;2024-01-10T10:47:36;13.20;;;7.20;;
67757;SDS011;54562;47.620;18.786;2024-01-10T10:51:08;14.50;;;8.00;;
67757;SDS011;54562;47.620;18.786;2024-01-10T10:54:38;15.00;;;8.20;;
67757;SDS011;54562;47.620;18.786;2024-01-10T10:57:49;13.80;;;7.00;;
67757;SDS011;54562;47.620;18.786;2024-01-10T11:01:19;16.10;;;9.00;;
67757;SDS011;54562;47.620;18.786;2024-01-10T11:04:31;17.70;;;8.70;;
67757;SDS011;54562;47.620;18.786;2024-01-10T11:07:54;14.20;;;7.70;;
67757;SDS011;54562;47.620;18.786;2024-01-10T11:11:07;14.70;;;8.00;;
67757;SDS011;54562;47.620;18.786;2024-01-10T11:15:02;15.50;;;8.40;;
67757;SDS011;54562;47.620;18.786;2024-01-10T11:18:44;13.70;;;7.80;;
67757;SDS011;54562;47.620;18.786;2024-01-10T11:22:25;19.90;;;9.80;;
67757;SDS011;54562;47.620;18.786;2024-01-10T11:26:04;18.10;;;9.90;;
67757;SDS011;54562;47.620;18.786;2024-01-10T11:29:21;18.40;;;9.60;;
67757;SDS011;54562;47.620;18.786;2024-01-10T11:32:37;17.00;;;8.80;;
67757;SDS011;54562;47.620;18.786;2024-01-10T11:36:07;14.00;;;7.50;;
67757;SDS011;54562;47.620;18.786;2024-01-10T11:39:45;12.30;;;6.80;;
67757;SDS011;54562;47.620;18.786;2024-01-10T11:42:55;15.20;;;6.90;;
67757;SDS011;54562;47.620;18.786;2024-01-10T11:46:21;13.40;;;7.20;;
67757;SDS011;54562;47.620;18.786;2024-01-10T11:49:33;16.90;;;8.00;;
67757;SDS011;54562;47.620;18.786;2024-01-10T11:52:56;13.80;;;7.40;;
67757;SDS011;54562;47.620;18.786;2024-01-10T11:56:09;15.50;;;6.90;;
67757;SDS011;54562;47.620;18.786;2024-01-10T11:59:50;14.40;;;7.70;;
67757;SDS011;54562;47.620;18.786;2024-01-10T12:03:21;14.40;;;7.70;;
67757;SDS011;54562;47.620;18.786;2024-01-10T12:06:56;15.50;;;8.10;;
67757;SDS011;54562;47.620;18.786;2024-01-10T12:10:27;13.30;;;7.50;;
67757;SDS011;54562;47.620;18.786;2024-01-10T12:13:44;14.10;;;7.80;;
67757;SDS011;54562;47.620;18.786;2024-01-10T12:17:07;11.70;;;6.70;;
67757;SDS011;54562;47.620;18.786;2024-01-10T12:20:18;14.00;;;7.60;;
67757;SDS011;54562;47.620;18.786;2024-01-10T12:23:41;15.10;;;8.10;;
67757;SDS011;54562;47.620;18.786;2024-01-10T12:26:52;14.70;;;8.50;;
67757;SDS011;54562;47.620;18.786;2024-01-10T12:30:22;13.50;;;7.70;;
67757;SDS011;54562;47.620;18.786;2024-01-10T12:33:51;13.90;;;8.10;;
67757;SDS011;54562;47.620;18.786;2024-01-10T12:37:22;13.90;;;8.00;;
67757;SDS011;54562;47.620;18.786;2024-01-10T12:40:51;14.90;;;8.60;;
67757;SDS011;54562;47.620;18.786;2024-01-10T12:44:21;12.50;;;7.80;;
67757;SDS011;54562;47.620;18.786;2024-01-10T12:47:50;14.00;;;8.20;;
67757;SDS011;54562;47.620;18.786;2024-01-10T12:51:23;16.00;;;8.60;;
67757;SDS011;54562;47.620;18.786;2024-01-10T12:54:51;14.60;;;7.80;;
67757;SDS011;54562;47.620;18.786;2024-01-10T12:58:20;15.10;;;7.70;;
67757;SDS011;54562;47.620;18.786;2024-01-10T13:01:37;13.60;;;7.10;;
67757;SDS011;54562;47.620;18.786;2024-01-10T13:04:55;13.20;;;7.40;;
67757;SDS011;54562;47.620;18.786;2024-01-10T13:08:17;12.40;;;7.00;;
67757;SDS011;54562;47.620;18.786;2024-01-10T13:15:03;13.20;;;6.90;;
67757;SDS011;54562;47.620;18.786;2024-01-10T13:18:21;12.20;;;6.80;;
67757;SDS011;54562;47.620;18.786;2024-01-10T13:21:37;12.20;;;7.40;;
67757;SDS011;54562;47.620;18.786;2024-01-10T13:24:54;13.70;;;8.20;;
67757;SDS011;54562;47.620;18.786;2024-01-10T13:28:10;14.20;;;8.10;;
67757;SDS011;54562;47.620;18.786;2024-01-10T13:31:40;13.30;;;7.90;;
67757;SDS011;54562;47.620;18.786;2024-01-10T13:35:10;11.80;;;6.80;;
67757;SDS011;54562;47.620;18.786;2024-01-10T13:38:40;13.10;;;7.00;;
67757;SDS011;54562;47.620;18.786;2024-01-10T13:42:08;12.20;;;6.80;;
67757;SDS011;54562;47.620;18.786;2024-01-10T13:45:25;13.80;;;7.10;;
67757;SDS011;54562;47.620;18.786;2024-01-10T13:48:41;13.20;;;7.80;;
67757;SDS011;54562;47.620;18.786;2024-01-10T13:51:58;13.20;;;7.70;;
67757;SDS011;54562;47.620;18.786;2024-01-10T13:58:30;21.40;;;11.00;;
67757;SDS011;54562;47.620;18.786;2024-01-10T14:02:00;19.20;;;10.70;;
67757;SDS011;54562;47.620;18.786;2024-01-10T14:05:29;19.90;;;11.30;;
67757;SDS011;54562;47.620;18.786;2024-01-10T14:08:57;19.50;;;11.60;;
67757;SDS011;54562;47.620;18.786;2024-01-10T14:12:28;22.00;;;11.30;;
67757;SDS011;54562;47.620;18.786;2024-01-10T14:15:44;23.10;;;11.90;;
67757;SDS011;54562;47.620;18.786;2024-01-10T14:19:00;19.50;;;10.80;;
67757;SDS011;54562;47.620;18.786;2024-01-10T14:22:17;21.10;;;11.70;;
67757;SDS011;54562;47.620;18.786;2024-01-10T14:25:41;20.30;;;11.60;;
67757;SDS011;54562;47.620;18.786;2024-01-10T14:28:57;19.20;;;11.30;;
67757;SDS011;54562;47.620;18.786;2024-01-10T14:32:27;23.10;;;11.70;;
67757;SDS011;54562;47.620;18.786;2024-01-10T14:35:56;20.70;;;12.00;;
67757;SDS011;54562;47.620;18.786;2024-01-10T14:39:26;22.00;;;11.90;;
67757;SDS011;54562;47.620;18.786;2024-01-10T14:42:56;21.50;;;11.80;;
67757;SDS011;54562;47.620;18.786;2024-01-10T14:46:12;21.00;;;11.40;;
67757;SDS011;54562;47.620;18.786;2024-01-10T14:49:29;18.80;;;11.10;;
67757;SDS011;54562;47.620;18.786;2024-01-10T14:52:46;21.60;;;11.20;;
67757;SDS011;54562;47.620;18.786;2024-01-10T14:56:06;26.20;;;11.10;;
67757;SDS011;54562;47.620;18.786;2024-01-10T14:59:22;18.20;;;10.30;;
67757;SDS011;54562;47.620;18.786;2024-01-10T15:03:01;21.30;;;10.80;;
67757;SDS011;54562;47.620;18.786;2024-01-10T15:06:44;21.60;;;11.10;;
67757;SDS011;54562;47.620;18.786;2024-01-10T15:10:14;20.70;;;10.70;;
67757;SDS011;54562;47.620;18.786;2024-01-10T15:13:43;19.50;;;10.70;;
67757;SDS011;54562;47.620;18.786;2024-01-10T15:17:12;18.70;;;10.40;;
67757;SDS011;54562;47.620;18.786;2024-01-10T15:20:41;20.30;;;10.10;;
67757;SDS011;54562;47.620;18.786;2024-01-10T15:24:10;18.80;;;9.60;;
67757;SDS011;54562;47.620;18.786;2024-01-10T15:27:40;19.70;;;10.00;;
67757;SDS011;54562;47.620;18.786;2024-01-10T15:30:50;18.60;;;10.00;;
67757;SDS011;54562;47.620;18.786;2024-01-10T15:34:14;19.80;;;10.40;;
67757;SDS011;54562;47.620;18.786;2024-01-10T15:37:24;21.30;;;10.90;;
67757;SDS011;54562;47.620;18.786;2024-01-10T15:40:47;20.40;;;11.20;;
67757;SDS011;54562;47.620;18.786;2024-01-10T15:43:58;23.40;;;11.90;;
67757;SDS011;54562;47.620;18.786;2024-01-10T15:47:29;20.10;;;11.80;;
67757;SDS011;54562;47.620;18.786;2024-01-10T15:50:59;22.00;;;11.40;;
67757;SDS011;54562;47.620;18.786;2024-01-10T15:54:28;19.10;;;12.00;;
67757;SDS011;54562;47.620;18.786;2024-01-10T15:57:59;20.80;;;10.90;;
67757;SDS011;54562;47.620;18.786;2024-01-10T16:01:09;20.10;;;11.40;;
67757;SDS011;54562;47.620;18.786;2024-01-10T16:04:33;21.40;;;11.50;;
67757;SDS011;54562;47.620;18.786;2024-01-10T16:07:43;22.00;;;10.60;;
67757;SDS011;54562;47.620;18.786;2024-01-10T16:11:08;22.00;;;10.80;;
67757;SDS011;54562;47.620;18.786;2024-01-10T16:14:18;23.80;;;11.60;;
67757;SDS011;54562;47.620;18.786;2024-01-10T16:17:48;19.20;;;11.30;;
67757;SDS011;54562;47.620;18.786;2024-01-10T16:21:21;21.20;;;11.50;;
67757;SDS011;54562;47.620;18.786;2024-01-10T16:24:51;23.90;;;11.60;;
67757;SDS011;54562;47.620;18.786;2024-01-10T16:28:20;21.60;;;10.60;;
67757;SDS011;54562;47.620;18.786;2024-01-10T16:31:31;21.20;;;11.70;;
67757;SDS011;54562;47.620;18.786;2024-01-10T16:34:53;21.60;;;12.30;;
67757;SDS011;54562;47.620;18.786;2024-01-10T16:38:03;23.80;;;12.10;;
67757;SDS011;54562;47.620;18.786;2024-01-10T16:41:28;20.70;;;11.70;;
67757;SDS011;54562;47.620;18.786;2024-01-10T16:44:38;23.10;;;12.30;;
67757;SDS011;54562;47.620;18.786;2024-01-10T16:48:08;22.60;;;12.10;;
67757;SDS011;54562;47.620;18.786;2024-01-10T16:51:38;23.10;;;11.50;;
67757;SDS011;54562;47.620;18.786;2024-01-10T16:55:07;23.80;;;12.20;;
67757;SDS011;54562;47.620;18.786;2024-01-10T16:58:38;21.50;;;12.00;;
67757;SDS011;54562;47.620;18.786;2024-01-10T17:01:48;25.10;;;12.90;;
67757;SDS011;54562;47.620;18.786;2024-01-10T17:05:19;21.20;;;10.80;;
67757;SDS011;54562;47.620;18.786;2024-01-10T17:08:54;23.80;;;12.60;;
67757;SDS011;54562;47.620;18.786;2024-01-10T17:12:25;24.20;;;12.60;;
67757;SDS011;54562;47.620;18.786;2024-01-10T17:15:54;24.10;;;12.40;;
67757;SDS011;54562;47.620;18.786;2024-01-10T17:19:24;26.60;;;13.60;;
67757;SDS011;54562;47.620;18.786;2024-01-10T17:22:53;24.70;;;12.90;;
67757;SDS011;54562;47.620;18.786;2024-01-10T17:26:22;23.60;;;13.10;;
67757;SDS011;54562;47.620;18.786;2024-01-10T17:29:52;23.70;;;13.20;;
67757;SDS011;54562;47.620;18.786;2024-01-10T17:33:08;24.70;;;13.60;;
67757;SDS011;54562;47.620;18.786;2024-01-10T17:36:33;26.60;;;14.30;;
67757;SDS011;54562;47.620;18.786;2024-01-10T17:39:51;26.40;;;13.90;;
67757;SDS011;54562;47.620;18.786;2024-01-10T17:43:07;27.00;;;14.40;;
67757;SDS011;54562;47.620;18.786;2024-01-10T17:46:24;30.00;;;14.40;;
67757;SDS011;54562;47.620;18.786;2024-01-10T17:49:47;26.30;;;14.00;;
67757;SDS011;54562;47.620;18.786;2024-01-10T17:52:57;26.80;;;14.10;;
67757;SDS011;54562;47.620;18.786;2024-01-10T17:56:21;26.00;;;13.20;;
67757;SDS011;54562;47.620;18.786;2024-01-10T17:59:30;23.40;;;12.80;;
67757;SDS011;54562;47.620;18.786;2024-01-10T18:03:00;25.00;;;12.30;;
67757;SDS011;54562;47.620;18.786;2024-01-10T18:06:30;24.30;;;12.50;;
67757;SDS011;54562;47.620;18.786;2024-01-10T18:09:59;23.20;;;12.90;;
67757;SDS011;54562;47.620;18.786;2024-01-10T18:13:29;24.40;;;13.40;;
67757;SDS011;54562;47.620;18.786;2024-01-10T18:16:40;25.20;;;12.00;;
67757;SDS011;54562;47.620;18.786;2024-01-10T18:20:04;19.60;;;11.90;;
67757;SDS011;54562;47.620;18.786;2024-01-10T18:23:18;23.60;;;12.40;;
67757;SDS011;54562;47.620;18.786;2024-01-10T18:26:42;23.00;;;12.50;;
67757;SDS011;54562;47.620;18.786;2024-01-10T18:29:52;25.50;;;12.70;;
67757;SDS011;54562;47.620;18.786;2024-01-10T18:33:21;21.80;;;11.10;;
67757;SDS011;54562;47.620;18.786;2024-01-10T18:36:50;19.60;;;10.90;;
67757;SDS011;54562;47.620;18.786;2024-01-10T18:40:22;24.00;;;10.90;;
67757;SDS011;54562;47.620;18.786;2024-01-10T18:43:51;20.20;;;11.50;;
67757;SDS011;54562;47.620;18.786;2024-01-10T18:47:01;23.80;;;12.30;;
67757;SDS011;54562;47.620;18.786;2024-01-10T18:50:25;22.50;;;12.10;;
67757;SDS011;54562;47.620;18.786;2024-01-10T18:53:36;21.20;;;11.30;;
67757;SDS011;54562;47.620;18.786;2024-01-10T18:56:59;21.70;;;11.70;;
67757;SDS011;54562;47.620;18.786;2024-01-10T19:00:16;22.20;;;12.90;;
67757;SDS011;54562;47.620;18.786;2024-01-10T19:03:46;21.90;;;12.00;;
67757;SDS011;54562;47.620;18.786;2024-01-10T19:07:15;24.00;;;12.30;;
67757;SDS011;54562;47.620;18.786;2024-01-10T19:10:44;22.50;;;11.90;;
67757;SDS011;54562;47.620;18.786;2024-01-10T19:14:13;22.90;;;12.10;;
67757;SDS011;54562;47.620;18.786;2024-01-10T19:17:45;22.00;;;11.90;;
67757;SDS011;54562;47.620;18.786;2024-01-10T19:20:56;22.50;;;11.60;;
67757;SDS011;54562;47.620;18.786;2024-01-10T19:24:20;22.70;;;12.30;;
67757;SDS011;54562;47.620;18.786;2024-01-10T19:27:37;21.70;;;11.40;;
67757;SDS011;54562;47.620;18.786;2024-01-10T19:31:06;23.90;;;11.00;;
67757;SDS011;54562;47.620;18.786;2024-01-10T19:34:23;24.10;;;12.20;;
67757;SDS011;54562;47.620;18.786;2024-01-10T19:37:39;22.30;;;12.90;;
67757;SDS011;54562;47.620;18.786;2024-01-10T19:40:56;22.10;;;12.10;;
67757;SDS011;54562;47.620;18.786;2024-01-10T19:44:12;22.00;;;12.10;;
67757;SDS011;54562;47.620;18.786;2024-01-10T19:47:41;21.10;;;12.00;;
67757;SDS011;54562;47.620;18.786;2024-01-10T19:50:52;23.10;;;11.90;;
67757;SDS011;54562;47.620;18.786;2024-01-10T19:54:15;27.40;;;13.00;;
67757;SDS011;54562;47.620;18.786;2024-01-10T19:57:25;23.70;;;13.10;;
67757;SDS011;54562;47.620;18.786;2024-01-10T20:00:50;24.60;;;12.50;;
67757;SDS011;54562;47.620;18.786;2024-01-10T20:04:08;23.20;;;11.50;;
67757;SDS011;54562;47.620;18.786;2024-01-10T20:07:24;22.80;;;12.20;;
67757;SDS011;54562;47.620;18.786;2024-01-10T20:10:42;22.10;;;12.80;;
67757;SDS011;54562;47.620;18.786;2024-01-10T20:13:59;20.90;;;11.90;;